Plattsmouth, NE

2:37 PM CDT on April 27, 2017 (GMT -0500)
Plattsmouth Municipal

Weather History for KPMV - February, 2013

Change the Weather History Date:

Tuesday, February 19, 2013

  Actual Average (KOFF) Record (KOFF)
Temperature  
Mean Temperature 18 °F -  
Max Temperature 27 °F 38 °F 71 °F (2017)
Min Temperature 10 °F 21 °F 0 °F (2015)
Degree Days  
Heating Degree Days 46    
Moisture  
Dew Point 4 °F    
Average Humidity 58    
Maximum Humidity 78    
Minimum Humidity 30    
Precipitation  
Precipitation 0.00 in - - ()
Sea Level Pressure  
Sea Level Pressure 30.25 in    
Wind  
Wind Speed 16 mph (NW)    
Max Wind Speed 25 mph    
Max Gust Speed 33 mph    
Visibility 10 miles    
Events      
Averages and records for this station are not official NWS values.
T = Trace of Precipitation, MM = Missing Value Source: NWS Daily Summary

Daily Weather History Graph

Daily Weather History Graph

Search for Another Location

Airport or City:

Trip Planner

Search our weather history database for the weather conditions in past years. The results will help you decide how hot, cold, wet, or windy it might be!

Date:

Astronomy

Feb. 19, 2013 Rise Set
Actual Time 7:12 AM CST 6:03 PM CST
Civil Twilight 6:44 AM CST 6:31 PM CST
Nautical Twilight 6:12 AM CST 7:03 PM CST
Astronomical Twilight 5:40 AM CST 7:35 PM CST
Moon 12:34 PM CST (2/19) 2:46 AM CST (2/19)
Length of Visible Light 11h 47m
Length of Day
10h 51m
Waxing Gibbous, 67% of the Moon is Illuminated
Feb 19
Waxing Gibbous
Feb 25
Full
Mar 4
Last Quarter
Mar 11
New
Mar 19
First Quarter

Hourly Weather History & Observations

Time (CST) Temp. Windchill Dew Point Humidity Pressure Visibility Wind Dir Wind Speed Gust Speed Precip Events Conditions
12:15 AM 22.6 °F 10.1 °F 16.7 °F 78% 30.06 in 10.0 mi WNW 13.8 mph 20.7 mph N/A   Mostly Cloudy
12:35 AM 23.7 °F 11.0 °F 17.1 °F 76% 30.07 in 10.0 mi NW 15.0 mph 20.7 mph N/A   Overcast
12:55 AM 23.5 °F 9.0 °F 16.0 °F 73% 30.07 in 10.0 mi NW 19.6 mph 28.8 mph N/A   Mostly Cloudy
1:15 AM 22.1 °F 5.4 °F 14.4 °F 72% 30.07 in 10.0 mi NW 25.3 mph 31.1 mph N/A   Scattered Clouds
1:35 AM 21.0 °F 5.4 °F 12.7 °F 70% 30.09 in 10.0 mi NW 20.7 mph 27.6 mph N/A   Clear
1:55 AM 19.9 °F 3.2 °F 11.8 °F 71% 30.09 in 10.0 mi NW 23.0 mph 33.4 mph N/A   Clear
2:15 AM 18.3 °F 3.1 °F 10.6 °F 72% 30.09 in 10.0 mi NW 17.3 mph 26.5 mph N/A   Clear
2:35 AM 17.6 °F 1.7 °F 9.5 °F 71% 30.11 in 10.0 mi NW 18.4 mph 31.1 mph N/A   Clear
2:55 AM 16.9 °F -0.5 °F 9.3 °F 72% 30.12 in 10.0 mi NW 21.9 mph 27.6 mph N/A   Clear
3:15 AM 16.3 °F 0.1 °F 8.6 °F 72% 30.12 in 10.0 mi NW 18.4 mph 27.6 mph N/A   Clear
3:35 AM 15.8 °F -1.5 °F 8.6 °F 73% 30.12 in 10.0 mi NW 20.7 mph 26.5 mph N/A   Clear
3:55 AM 14.9 °F -2.7 °F 7.7 °F 73% 30.13 in 10.0 mi NW 20.7 mph 28.8 mph N/A   Clear
4:15 AM 14.4 °F -2.5 °F 7.7 °F 75% 30.14 in 10.0 mi NW 18.4 mph - N/A   Clear
4:35 AM 14.0 °F -2.5 °F 7.3 °F 75% 30.14 in 10.0 mi NW 17.3 mph 21.9 mph N/A   Clear
4:55 AM 13.5 °F -3.2 °F 6.8 °F 75% 30.16 in 10.0 mi NW 17.3 mph 23.0 mph N/A   Clear
5:15 AM 12.9 °F -4.4 °F 6.8 °F 77% 30.15 in 10.0 mi NW 18.4 mph 24.2 mph N/A   Clear
5:55 AM 12.0 °F -5.6 °F 5.2 °F 74% 30.17 in 10.0 mi NW 18.4 mph 29.9 mph N/A   Scattered Clouds
6:15 AM 11.3 °F -6.5 °F 3.9 °F 72% 30.18 in 10.0 mi NW 18.4 mph 26.5 mph N/A   Clear
6:35 AM 10.8 °F -5.6 °F 3.9 °F 74% 30.20 in 10.0 mi NW 15.0 mph 25.3 mph N/A   Clear
6:55 AM 10.4 °F -6.0 °F 3.7 °F 74% 30.21 in 10.0 mi NW 15.0 mph 20.7 mph N/A   Scattered Clouds
7:15 AM 10.4 °F -5.4 °F 3.4 °F 73% 30.21 in 10.0 mi NW 13.8 mph - N/A   Clear
7:35 AM 10.6 °F -8.8 °F 3.2 °F 72% 30.22 in 10.0 mi NW 21.9 mph 28.8 mph N/A   Clear
7:55 AM 11.1 °F -8.5 °F 3.6 °F 72% 30.23 in 10.0 mi NW 23.0 mph 27.6 mph N/A   Clear
8:15 AM 11.7 °F -6.5 °F 3.2 °F 69% 30.24 in 10.0 mi NW 19.6 mph 29.9 mph N/A   Clear
8:35 AM 12.2 °F -6.7 °F 3.4 °F 68% 30.26 in 10.0 mi NW 21.9 mph 26.5 mph N/A   Clear
8:55 AM 12.6 °F -6.6 °F 3.0 °F 66% 30.26 in 10.0 mi NW 23.0 mph 29.9 mph N/A   Clear
9:15 AM 13.6 °F -3.0 °F 3.6 °F 64% 30.29 in 10.0 mi NNW 17.3 mph 24.2 mph N/A   Scattered Clouds
9:35 AM 13.6 °F -3.9 °F 3.2 °F 63% 30.29 in 10.0 mi NW 19.6 mph 29.9 mph N/A   Scattered Clouds
9:55 AM 14.5 °F -1.8 °F 3.9 °F 63% 30.30 in 10.0 mi NW 17.3 mph 23.0 mph N/A   Clear
10:15 AM 14.7 °F -1.6 °F 3.2 °F 60% 30.30 in 10.0 mi NW 17.3 mph 23.0 mph N/A   Clear
10:35 AM 15.8 °F 1.4 °F 3.4 °F 58% 30.30 in 10.0 mi NW 13.8 mph 20.7 mph N/A   Clear
10:55 AM 16.9 °F 1.2 °F 3.2 °F 55% 30.31 in 10.0 mi NW 17.3 mph 23.0 mph N/A   Clear
11:15 AM 17.8 °F 1.9 °F 3.4 °F 53% 30.31 in 10.0 mi NW 18.4 mph 24.2 mph N/A   Clear
11:35 AM 18.9 °F 6.5 °F 3.2 °F 51% 30.31 in 10.0 mi NW 11.5 mph 23.0 mph N/A   Clear
11:55 AM 20.3 °F 5.2 °F 3.7 °F 49% 30.31 in 10.0 mi NW 18.4 mph 23.0 mph N/A   Clear
12:15 PM 21.2 °F 7.3 °F 3.6 °F 47% 30.31 in 10.0 mi NW 16.1 mph 25.3 mph N/A   Clear
12:35 PM 22.6 °F 8.7 °F 3.9 °F 45% 30.30 in 10.0 mi NNW 17.3 mph 27.6 mph N/A   Clear
12:55 PM 23.0 °F 10.6 °F 3.2 °F 43% 30.30 in 10.0 mi NW 13.8 mph 20.7 mph N/A   Clear
1:15 PM 24.3 °F 12.2 °F 3.2 °F 40% 30.30 in 10.0 mi NNW 13.8 mph 25.3 mph N/A   Clear
1:35 PM 25.0 °F 13.1 °F 2.5 °F 38% 30.29 in 10.0 mi NW 13.8 mph 24.2 mph N/A   Clear
1:55 PM 25.9 °F 13.8 °F 1.9 °F 36% 30.29 in 10.0 mi NW 15.0 mph 23.0 mph N/A   Clear
2:15 PM 26.1 °F 13.1 °F 1.2 °F 34% 30.28 in 10.0 mi WNW 17.3 mph 21.9 mph N/A   Clear
2:35 PM 26.2 °F 13.8 °F -0.2 °F 32% 30.29 in 10.0 mi NW 16.1 mph - N/A   Clear
2:55 PM 26.6 °F 14.7 °F -1.1 °F 30% 30.29 in 10.0 mi NNW 15.0 mph 20.7 mph N/A   Clear
3:15 PM 26.8 °F 14.5 °F -0.4 °F 31% 30.29 in 10.0 mi NW 16.1 mph 19.6 mph N/A   Clear
3:35 PM 27.7 °F 16.6 °F 0.3 °F 31% 30.29 in 10.0 mi NW 13.8 mph 19.6 mph N/A   Clear
3:55 PM 27.1 °F 14.5 °F -0.4 °F 31% 30.29 in 10.0 mi NW 17.3 mph 23.0 mph N/A   Clear
4:15 PM 27.5 °F 16.8 °F 0.7 °F 32% 30.29 in 10.0 mi NW 12.7 mph 16.1 mph N/A   Clear
4:35 PM 26.6 °F 16.2 °F -1.5 °F 30% 30.28 in 10.0 mi NW 11.5 mph 17.3 mph N/A   Clear
4:55 PM 26.8 °F 15.9 °F -0.8 °F 30% 30.28 in 10.0 mi NW 12.7 mph - N/A   Clear
5:15 PM 25.7 °F 15.7 °F -1.3 °F 31% 30.28 in 10.0 mi WNW 10.4 mph - N/A   Clear
6:35 PM 20.3 °F 11.5 °F -0.2 °F 41% 30.29 in 10.0 mi NNW 6.9 mph - N/A   Clear
6:55 PM 20.3 °F 9.0 °F -0.2 °F 41% 30.29 in 10.0 mi NNW 10.4 mph - N/A   Clear
7:15 PM 20.1 °F 10.3 °F -1.5 °F 39% 30.29 in 10.0 mi NNW 8.1 mph - N/A   Clear
7:35 PM 18.5 °F 9.3 °F 0.3 °F 45% 30.30 in 10.0 mi NNW 6.9 mph - N/A   Clear
7:55 PM 17.2 °F 6.8 °F 1.0 °F 49% 30.31 in 10.0 mi NW 8.1 mph - N/A   Clear
8:15 PM 17.6 °F 9.3 °F 1.2 °F 49% 30.30 in 10.0 mi NNW 5.8 mph - N/A   Clear
8:35 PM 16.0 °F 8.8 °F 2.1 °F 54% 30.30 in 10.0 mi NNW 4.6 mph - N/A   Clear
8:55 PM 14.9 °F 9.2 °F 2.3 °F 57% 30.31 in 10.0 mi NNW 3.5 mph - N/A   Clear
9:15 PM 13.8 °F 6.2 °F 2.1 °F 60% 30.32 in 10.0 mi NW 4.6 mph - N/A   Clear
9:55 PM 12.7 °F - 2.3 °F 63% 30.34 in 10.0 mi Calm Calm - N/A   Clear
10:15 PM 13.1 °F 4.0 °F 1.8 °F 61% 30.35 in 10.0 mi NW 5.8 mph - N/A   Clear
10:35 PM 12.6 °F 3.4 °F 1.4 °F 61% 30.34 in 10.0 mi NNW 5.8 mph - N/A   Clear
10:55 PM 12.2 °F 6.1 °F 1.8 °F 63% 30.34 in 10.0 mi NNW 3.5 mph - N/A   Clear
11:15 PM 10.0 °F 3.6 °F 1.4 °F 68% 30.35 in 10.0 mi NW 3.5 mph - N/A   Clear
11:35 PM 11.3 °F 5.1 °F 1.9 °F 66% 30.35 in 10.0 mi North 3.5 mph - N/A   Clear
11:55 PM 10.0 °F 3.6 °F 1.9 °F 70% 30.36 in 10.0 mi NW 3.5 mph - N/A   Clear